createdAt,value
2022-10-05T00:01:27.471Z,95.16
2022-10-05T00:04:01.177Z,95.15
2022-10-05T00:06:30.704Z,94.73
2022-10-05T00:08:59.078Z,94.13
2022-10-05T00:11:27.187Z,93.87
2022-10-05T00:13:55.685Z,93.62
2022-10-05T00:16:23.870Z,93.83
2022-10-05T00:18:53.528Z,93.46
2022-10-05T00:21:25.019Z,92.97
2022-10-05T00:23:54.014Z,93.12
2022-10-05T00:26:23.928Z,92.79
2022-10-05T00:28:52.755Z,92.80
2022-10-05T00:31:22.299Z,92.58
2022-10-05T00:33:50.741Z,92.93
2022-10-05T00:36:19.201Z,92.45
2022-10-05T00:38:48.887Z,92.87
2022-10-05T00:41:22.969Z,92.71
2022-10-05T00:44:22.140Z,92.57
2022-10-05T00:46:56.129Z,92.74
2022-10-05T00:49:37.523Z,92.23
2022-10-05T00:52:12.391Z,92.85
2022-10-05T00:54:45.512Z,93.14
2022-10-05T00:57:23.787Z,92.55
2022-10-05T01:00:05.269Z,92.95
2022-10-05T01:02:41.087Z,92.57
2022-10-05T01:05:13.662Z,92.90
2022-10-05T01:07:46.734Z,93.33
2022-10-05T01:10:23.108Z,93.06
2022-10-05T01:12:59.412Z,92.22
2022-10-05T01:15:32.640Z,92.51
2022-10-05T01:18:08.316Z,92.08
2022-10-05T01:20:42.690Z,92.42
2022-10-05T01:23:38.481Z,92.12
2022-10-05T01:26:21.305Z,92.26
2022-10-05T01:28:54.992Z,92.18
2022-10-05T01:31:27.107Z,92.81
2022-10-05T01:34:11.424Z,91.98
2022-10-05T01:36:45.769Z,92.56
2022-10-05T01:39:20.087Z,92.75
2022-10-05T01:41:52.075Z,92.88
2022-10-05T01:44:25.800Z,92.81
2022-10-05T01:46:59.099Z,92.71
2022-10-05T01:49:38.958Z,92.85
2022-10-05T01:52:25.963Z,92.67
2022-10-05T01:55:02.371Z,92.50
2022-10-05T01:57:40.918Z,92.44
2022-10-05T02:00:12.032Z,92.52
2022-10-05T02:02:42.676Z,92.31
2022-10-05T02:05:14.174Z,93.28
2022-10-05T02:07:45.880Z,93.45
2022-10-05T02:10:20.530Z,93.80
2022-10-05T02:12:51.339Z,94.23
2022-10-05T02:15:24.249Z,94.43
2022-10-05T02:17:56.810Z,94.32
2022-10-05T02:20:27.421Z,94.69
2022-10-05T02:22:58.840Z,94.96
2022-10-05T02:25:30.528Z,94.60
2022-10-05T02:28:01.602Z,95.54
2022-10-05T02:30:33.158Z,95.61
2022-10-05T02:33:03.163Z,96.14
2022-10-05T02:35:31.327Z,96.08
2022-10-05T02:38:10.527Z,96.24
2022-10-05T02:40:46.356Z,96.37
2022-10-05T02:43:22.591Z,96.82
2022-10-05T02:45:57.352Z,96.75
2022-10-05T02:48:33.082Z,96.93
2022-10-05T02:51:08.182Z,97.21
2022-10-05T02:53:40.434Z,98.13
2022-10-05T02:56:15.013Z,97.91
2022-10-05T02:58:48.781Z,98.01
2022-10-05T03:01:23.144Z,97.61
2022-10-05T03:03:59.500Z,98.51
2022-10-05T03:06:32.186Z,98.04
2022-10-05T03:09:03.317Z,98.16
2022-10-05T03:11:40.129Z,98.14
2022-10-05T03:14:12.784Z,98.25
2022-10-05T03:16:49.244Z,98.29
2022-10-05T03:19:28.112Z,98.50
2022-10-05T03:22:00.723Z,98.11
2022-10-05T03:24:45.615Z,98.55
2022-10-05T03:27:23.391Z,97.99
2022-10-05T03:29:57.505Z,98.22
2022-10-05T03:32:35.023Z,98.66
2022-10-05T03:35:08.578Z,98.57
2022-10-05T03:37:44.823Z,98.68
2022-10-05T03:40:23.594Z,98.12
2022-10-05T03:42:56.953Z,98.59
2022-10-05T03:45:25.732Z,98.52
2022-10-05T03:48:01.693Z,98.72
2022-10-05T03:50:36.167Z,98.16
2022-10-05T03:53:07.411Z,98.07
2022-10-05T03:55:40.550Z,98.95
2022-10-05T03:58:14.566Z,99.01
2022-10-05T04:00:45.333Z,98.62
2022-10-05T04:03:20.383Z,98.26
2022-10-05T04:05:52.017Z,98.22
2022-10-05T04:08:24.433Z,98.85
2022-10-05T04:10:54.298Z,98.75
2022-10-05T04:13:26.335Z,99.17
2022-10-05T04:15:59.222Z,98.94
2022-10-05T04:18:32.492Z,98.42
2022-10-05T04:21:03.874Z,98.75
2022-10-05T04:23:43.978Z,99.04
2022-10-05T04:26:14.820Z,99.10
2022-10-05T04:28:48.667Z,98.72
2022-10-05T04:31:26.146Z,98.74
2022-10-05T04:34:04.379Z,98.60
2022-10-05T04:36:35.222Z,98.42
2022-10-05T04:39:08.275Z,98.34
2022-10-05T04:41:50.384Z,98.42
2022-10-05T04:44:38.728Z,98.56
2022-10-05T04:47:25.032Z,99.04
2022-10-05T04:50:08.303Z,99.09
2022-10-05T04:52:41.347Z,99.14
2022-10-05T04:55:15.764Z,99.03
2022-10-05T04:57:51.142Z,98.49
2022-10-05T05:00:24.416Z,98.40
2022-10-05T05:03:17.245Z,98.67
2022-10-05T05:06:15.351Z,98.15
2022-10-05T05:08:51.642Z,97.98
2022-10-05T05:11:28.482Z,97.78
2022-10-05T05:14:31.963Z,97.89
2022-10-05T05:17:13.365Z,97.84
2022-10-05T05:19:47.161Z,97.74
2022-10-05T05:22:25.146Z,97.30
2022-10-05T05:25:05.558Z,97.76
2022-10-05T05:27:40.647Z,97.60
2022-10-05T05:30:16.705Z,96.87
2022-10-05T05:32:51.522Z,96.60
2022-10-05T05:35:32.524Z,97.04
2022-10-05T05:38:11.571Z,96.84
2022-10-05T05:40:44.802Z,95.96
2022-10-05T05:43:23.895Z,96.89
2022-10-05T05:45:58.845Z,97.01
2022-10-05T05:48:32.128Z,97.31
2022-10-05T05:51:04.355Z,96.60
2022-10-05T05:53:38.468Z,96.50
2022-10-05T05:56:10.972Z,97.11
2022-10-05T05:58:50.171Z,95.75
2022-10-05T06:01:32.742Z,95.61
2022-10-05T06:04:04.010Z,94.70
2022-10-05T06:06:33.814Z,94.66
2022-10-05T06:09:07.105Z,94.41
2022-10-05T06:11:37.218Z,95.26
2022-10-05T06:14:07.003Z,94.32
2022-10-05T06:16:38.234Z,94.60
2022-10-05T06:19:11.745Z,94.44
2022-10-05T06:21:43.687Z,95.09
2022-10-05T06:24:17.032Z,96.39
2022-10-05T06:27:00.100Z,95.63
2022-10-05T06:29:35.735Z,95.19
2022-10-05T06:32:07.728Z,94.01
2022-10-05T06:34:48.154Z,93.78
2022-10-05T06:37:22.187Z,93.88
2022-10-05T06:40:01.056Z,94.04
2022-10-05T06:42:45.781Z,92.83
2022-10-05T06:45:21.920Z,92.32
2022-10-05T06:47:53.564Z,93.19
2022-10-05T06:50:31.434Z,94.31
2022-10-05T06:53:10.288Z,93.03
2022-10-05T06:55:47.669Z,93.67
2022-10-05T06:58:28.031Z,92.51
2022-10-05T07:01:00.820Z,91.42
2022-10-05T07:03:35.184Z,90.80
2022-10-05T07:06:08.418Z,91.86
2022-10-05T07:08:46.843Z,91.82
2022-10-05T07:11:28.220Z,89.96
2022-10-05T07:14:12.651Z,90.12
2022-10-05T07:16:49.133Z,89.76
2022-10-05T07:19:27.124Z,88.99
2022-10-05T07:22:10.841Z,88.91
2022-10-05T07:24:43.126Z,90.32
2022-10-05T07:27:17.135Z,89.71
2022-10-05T07:29:51.390Z,90.04
2022-10-05T07:32:34.958Z,90.27
2022-10-05T07:35:06.194Z,90.71
2022-10-05T07:37:54.919Z,91.19
2022-10-05T07:40:27.264Z,90.52
2022-10-05T07:43:09.899Z,90.17
2022-10-05T07:45:43.478Z,88.24
2022-10-05T07:48:17.413Z,87.88
2022-10-05T07:50:54.557Z,86.92
2022-10-05T07:53:28.343Z,86.32
2022-10-05T07:56:00.833Z,86.89
2022-10-05T07:58:34.277Z,86.36
2022-10-05T08:01:04.900Z,87.48
2022-10-05T08:03:41.198Z,86.55
2022-10-05T08:06:15.170Z,87.84
2022-10-05T08:08:49.600Z,87.11
2022-10-05T08:11:21.891Z,88.01
2022-10-05T08:13:55.448Z,86.66
2022-10-05T08:16:26.511Z,85.92
2022-10-05T08:18:58.349Z,86.58
2022-10-05T08:21:31.916Z,86.65
2022-10-05T08:24:04.630Z,86.32
2022-10-05T08:26:38.513Z,85.92
2022-10-05T08:29:14.614Z,86.26
2022-10-05T08:31:46.002Z,85.94
2022-10-05T08:34:23.451Z,85.80
2022-10-05T08:37:00.704Z,85.71
2022-10-05T08:39:32.081Z,86.02
2022-10-05T08:42:30.116Z,85.38
2022-10-05T08:45:39.173Z,85.74
2022-10-05T08:48:36.096Z,86.55
2022-10-05T08:51:30.321Z,85.78
2022-10-05T08:54:37.054Z,85.83
2022-10-05T08:57:24.459Z,84.81
2022-10-05T09:00:05.672Z,85.09
2022-10-05T09:02:56.470Z,84.98
2022-10-05T09:05:52.276Z,83.69
2022-10-05T09:08:43.767Z,85.52
2022-10-05T09:11:14.847Z,83.96
2022-10-05T09:14:30.923Z,85.35
2022-10-05T09:17:09.251Z,83.98
2022-10-05T09:20:08.373Z,83.91
2022-10-05T09:22:40.249Z,85.01
2022-10-05T09:25:28.814Z,86.37
2022-10-05T09:27:58.685Z,88.03
2022-10-05T09:30:35.328Z,88.89
2022-10-05T09:33:54.894Z,90.75
2022-10-05T09:37:08.458Z,89.92
2022-10-05T09:40:11.412Z,88.23
2022-10-05T09:42:48.982Z,86.51
2022-10-05T09:45:33.857Z,82.93
2022-10-05T09:48:44.640Z,81.09
2022-10-05T09:51:39.100Z,83.48
2022-10-05T09:54:46.324Z,81.80
2022-10-05T09:57:32.614Z,84.44
2022-10-05T10:00:37.270Z,86.00
2022-10-05T10:03:19.821Z,87.67
2022-10-05T10:06:17.176Z,86.50
2022-10-05T10:08:54.122Z,88.24
2022-10-05T10:11:27.726Z,89.25
2022-10-05T10:14:16.854Z,89.85
2022-10-05T10:17:17.541Z,88.21
2022-10-05T10:20:03.317Z,88.58
2022-10-05T10:23:08.586Z,90.47
2022-10-05T10:26:23.427Z,91.30
2022-10-05T10:29:13.574Z,89.42
2022-10-05T10:32:04.713Z,89.45
2022-10-05T10:35:04.169Z,88.92
2022-10-05T10:37:41.101Z,87.60
2022-10-05T10:40:27.209Z,85.83
2022-10-05T10:43:10.607Z,86.47
2022-10-05T10:45:48.236Z,85.18
2022-10-05T10:48:49.786Z,84.78
2022-10-05T10:51:20.510Z,84.56
2022-10-05T10:54:26.263Z,86.85
2022-10-05T10:57:06.811Z,87.25
2022-10-05T11:00:15.833Z,86.94
2022-10-05T11:03:13.769Z,86.09
2022-10-05T11:06:23.767Z,85.18
2022-10-05T11:09:04.715Z,85.77
2022-10-05T11:12:15.744Z,86.48
2022-10-05T11:14:57.161Z,86.55
2022-10-05T11:17:33.541Z,87.53
2022-10-05T11:20:26.650Z,85.21
2022-10-05T11:23:10.837Z,85.22
2022-10-05T11:26:01.624Z,85.57
2022-10-05T11:28:54.858Z,85.49
2022-10-05T11:31:39.222Z,85.52
2022-10-05T11:34:35.512Z,83.46
2022-10-05T11:37:29.228Z,84.20
2022-10-05T11:40:14.910Z,84.81
2022-10-05T11:43:10.391Z,84.51
2022-10-05T11:45:49.438Z,83.62
2022-10-05T11:48:29.903Z,83.49
2022-10-05T11:51:22.955Z,83.64
2022-10-05T11:53:58.911Z,84.03
2022-10-05T11:59:12.599Z,84.94
2022-10-05T12:01:45.640Z,86.31
2022-10-05T12:04:18.403Z,85.60
2022-10-05T12:06:58.235Z,85.64
2022-10-05T12:10:01.647Z,84.48
2022-10-05T12:12:36.762Z,85.80
2022-10-05T12:15:18.636Z,86.26
2022-10-05T12:17:51.526Z,85.73
2022-10-05T12:20:22.412Z,85.50
2022-10-05T12:22:54.127Z,86.81
2022-10-05T12:25:27.113Z,86.92
2022-10-05T12:27:58.875Z,86.06
2022-10-05T12:30:34.036Z,85.71
2022-10-05T12:33:07.403Z,85.85
2022-10-05T12:35:47.793Z,84.96
2022-10-05T12:38:25.222Z,84.45
2022-10-05T12:41:00.885Z,85.24
2022-10-05T12:43:36.272Z,83.98
2022-10-05T12:46:11.052Z,84.33
2022-10-05T12:48:56.418Z,83.25
2022-10-05T12:51:35.263Z,83.94
2022-10-05T12:54:09.305Z,84.47
2022-10-05T12:56:44.753Z,85.35
2022-10-05T12:59:19.889Z,84.87
2022-10-05T13:01:53.848Z,84.33
2022-10-05T13:04:32.665Z,84.77
2022-10-05T13:07:35.646Z,86.28
2022-10-05T13:10:14.251Z,87.56
2022-10-05T13:12:48.065Z,87.43
2022-10-05T13:15:21.910Z,87.64
2022-10-05T13:17:59.236Z,89.27
2022-10-05T13:20:31.278Z,89.56
2022-10-05T13:23:04.824Z,89.12
2022-10-05T13:25:35.588Z,86.14
2022-10-05T13:28:16.390Z,87.09
2022-10-05T13:30:53.257Z,86.36
2022-10-05T13:33:28.659Z,85.71
2022-10-05T13:36:02.098Z,86.40
2022-10-05T13:38:41.138Z,86.88
2022-10-05T13:41:17.359Z,85.13
2022-10-05T13:43:53.191Z,84.79
2022-10-05T13:46:28.727Z,84.60
2022-10-05T13:49:06.279Z,83.13
2022-10-05T13:51:42.482Z,83.74
2022-10-05T13:54:16.491Z,84.33
2022-10-05T13:56:47.358Z,84.23
2022-10-05T13:59:21.511Z,83.72
2022-10-05T14:01:54.387Z,84.81
2022-10-05T14:04:26.249Z,84.63
2022-10-05T14:06:54.707Z,83.34
2022-10-05T14:09:31.479Z,83.26
2022-10-05T14:12:15.694Z,84.54
2022-10-05T14:14:47.552Z,84.65
2022-10-05T14:17:17.571Z,83.63
2022-10-05T14:19:51.076Z,85.27
2022-10-05T14:22:23.369Z,85.31
2022-10-05T14:24:54.006Z,85.74
2022-10-05T14:27:25.977Z,86.63
2022-10-05T14:29:58.454Z,87.21
2022-10-05T14:32:28.703Z,87.08
2022-10-05T14:35:05.178Z,85.94
2022-10-05T14:37:36.503Z,85.94
2022-10-05T14:40:24.634Z,87.44
2022-10-05T14:42:53.057Z,86.21
2022-10-05T14:45:23.814Z,85.98
2022-10-05T14:47:54.407Z,86.42
2022-10-05T14:50:29.621Z,87.13
2022-10-05T14:53:16.786Z,88.27
2022-10-05T14:55:58.102Z,87.70
2022-10-05T14:58:36.411Z,87.79
2022-10-05T15:01:11.297Z,87.85
2022-10-05T15:03:46.979Z,88.44
2022-10-05T15:06:27.118Z,87.14
2022-10-05T15:09:17.014Z,88.43
2022-10-05T15:11:50.411Z,87.37
2022-10-05T15:14:21.850Z,87.87
2022-10-05T15:16:52.222Z,88.01
2022-10-05T15:19:24.231Z,87.63
2022-10-05T15:22:18.819Z,87.60
2022-10-05T15:24:57.948Z,88.55
2022-10-05T15:27:31.624Z,89.54
2022-10-05T15:30:05.753Z,90.67
2022-10-05T15:32:44.383Z,91.62
2022-10-05T15:35:30.291Z,92.68
2022-10-05T15:38:03.032Z,93.18
2022-10-05T15:40:36.036Z,93.69
2022-10-05T15:43:05.891Z,94.93
2022-10-05T15:45:37.788Z,95.00
2022-10-05T15:48:08.497Z,95.89
2022-10-05T15:50:39.367Z,95.74
2022-10-05T15:53:13.196Z,94.92
2022-10-05T15:55:47.012Z,94.38
2022-10-05T15:58:31.784Z,94.39
2022-10-05T16:01:04.993Z,95.05
2022-10-05T16:03:43.525Z,94.41
2022-10-05T16:06:35.281Z,94.99
2022-10-05T16:09:15.140Z,94.67
2022-10-05T16:11:54.799Z,94.40
2022-10-05T16:14:41.584Z,94.65
2022-10-05T16:17:34.231Z,95.13
2022-10-05T16:20:17.781Z,95.17
2022-10-05T16:22:51.028Z,95.28
2022-10-05T16:25:23.581Z,95.46
2022-10-05T16:28:08.630Z,95.13
2022-10-05T16:30:48.415Z,95.94
2022-10-05T16:33:21.253Z,95.08
2022-10-05T16:35:56.008Z,94.48
2022-10-05T16:38:31.691Z,94.75
2022-10-05T16:41:04.653Z,94.83
2022-10-05T16:43:41.904Z,93.92
2022-10-05T16:46:15.914Z,94.24
2022-10-05T16:48:51.247Z,94.35
2022-10-05T16:51:26.253Z,95.31
2022-10-05T16:54:01.363Z,94.76
2022-10-05T16:56:35.761Z,93.92
2022-10-05T16:59:29.654Z,94.63
2022-10-05T17:01:58.850Z,93.16
2022-10-05T17:04:36.848Z,93.87
2022-10-05T17:07:16.883Z,93.44
2022-10-05T17:10:11.905Z,93.27
2022-10-05T17:12:48.337Z,92.10
2022-10-05T17:15:30.808Z,92.08
2022-10-05T17:18:16.681Z,94.19
2022-10-05T17:20:51.979Z,94.99
2022-10-05T17:23:40.384Z,95.57
2022-10-05T17:26:41.109Z,95.71
2022-10-05T17:29:18.589Z,95.76
2022-10-05T17:32:14.053Z,95.50
2022-10-05T17:35:18.187Z,95.91
2022-10-05T17:38:07.069Z,96.33
2022-10-05T17:40:37.379Z,97.23
2022-10-05T17:43:25.756Z,96.14
2022-10-05T17:46:00.934Z,94.51
2022-10-05T17:49:08.529Z,91.40
2022-10-05T17:52:17.123Z,93.70
2022-10-05T17:55:31.124Z,94.29
2022-10-05T17:58:02.224Z,92.90
2022-10-05T18:00:44.109Z,93.06
2022-10-05T18:03:37.924Z,93.01
2022-10-05T18:06:25.014Z,92.99
2022-10-05T18:09:17.157Z,93.79
2022-10-05T18:11:49.861Z,91.89
2022-10-05T18:14:23.414Z,93.17
2022-10-05T18:16:59.674Z,92.72
2022-10-05T18:19:32.586Z,92.99
2022-10-05T18:22:05.340Z,92.77
2022-10-05T18:24:57.061Z,92.66
2022-10-05T18:28:06.757Z,93.40
2022-10-05T18:30:43.366Z,93.59
2022-10-05T18:33:40.419Z,93.34
2022-10-05T18:36:34.160Z,92.76
2022-10-05T18:39:17.151Z,94.06
2022-10-05T18:41:54.426Z,91.72
2022-10-05T18:44:33.734Z,91.95
2022-10-05T18:47:08.284Z,91.52
2022-10-05T18:49:48.719Z,92.34
2022-10-05T18:52:26.584Z,91.35
2022-10-05T18:55:03.229Z,91.88
2022-10-05T18:58:03.391Z,92.87
2022-10-05T19:00:44.003Z,92.36
2022-10-05T19:03:16.885Z,92.53
2022-10-05T19:05:50.075Z,92.02
2022-10-05T19:08:29.966Z,91.74
2022-10-05T19:11:04.411Z,92.46
2022-10-05T19:13:40.205Z,92.82
2022-10-05T19:16:22.764Z,91.54
2022-10-05T19:19:08.051Z,91.71
2022-10-05T19:21:43.316Z,91.77
2022-10-05T19:24:28.310Z,93.16
2022-10-05T19:27:04.201Z,93.23
2022-10-05T19:29:42.864Z,92.39
2022-10-05T19:32:18.810Z,91.73
2022-10-05T19:34:59.228Z,91.72
2022-10-05T19:37:33.283Z,91.66
2022-10-05T19:40:09.874Z,92.04
2022-10-05T19:42:49.190Z,91.31
2022-10-05T19:45:21.734Z,92.05
2022-10-05T19:48:00.696Z,91.98
2022-10-05T19:50:30.455Z,92.00
2022-10-05T19:53:07.504Z,92.38
2022-10-05T19:55:41.717Z,93.42
2022-10-05T19:58:21.483Z,94.63
2022-10-05T20:00:56.538Z,94.60
2022-10-05T20:03:29.310Z,96.92
2022-10-05T20:05:58.833Z,96.42
2022-10-05T20:08:28.583Z,96.62
2022-10-05T20:11:15.237Z,96.70
2022-10-05T20:13:44.953Z,96.38
2022-10-05T20:16:51.196Z,95.71
2022-10-05T20:19:48.026Z,95.51
2022-10-05T20:22:29.981Z,94.46
2022-10-05T20:25:00.279Z,96.18
2022-10-05T20:27:48.024Z,94.68
2022-10-05T20:30:21.621Z,95.05
2022-10-05T20:32:50.559Z,94.98
2022-10-05T20:35:21.701Z,94.11
2022-10-05T20:37:50.401Z,94.49
2022-10-05T20:40:19.846Z,94.10
2022-10-05T20:42:50.588Z,94.31
2022-10-05T20:45:18.778Z,95.28
2022-10-05T20:47:47.575Z,96.04
2022-10-05T20:50:16.347Z,94.94
2022-10-05T20:52:44.534Z,94.96
2022-10-05T20:55:13.536Z,94.43
2022-10-05T20:57:42.754Z,94.66
2022-10-05T21:00:13.760Z,94.34
2022-10-05T21:02:42.132Z,95.13
2022-10-05T21:05:11.053Z,94.91
2022-10-05T21:07:40.978Z,96.02
2022-10-05T21:10:09.949Z,95.65
2022-10-05T21:12:38.184Z,96.02
2022-10-05T21:15:07.504Z,96.69
2022-10-05T21:17:38.220Z,97.49
2022-10-05T21:20:07.487Z,97.71
2022-10-05T21:22:36.431Z,97.64
2022-10-05T21:25:04.907Z,97.86
2022-10-05T21:27:33.064Z,98.05
2022-10-05T21:30:01.419Z,98.24
2022-10-05T21:32:32.163Z,99.74
2022-10-05T21:35:01.707Z,98.42
2022-10-05T21:37:30.608Z,97.91
2022-10-05T21:39:58.850Z,97.93
2022-10-05T21:42:27.680Z,98.33
2022-10-05T21:44:55.778Z,97.56
2022-10-05T21:47:24.082Z,97.41
2022-10-05T21:49:52.209Z,97.69
2022-10-05T21:52:21.995Z,98.27
2022-10-05T21:54:50.323Z,97.83
2022-10-05T21:57:18.720Z,98.38
2022-10-05T21:59:47.115Z,98.67
2022-10-05T22:02:15.263Z,98.22
2022-10-05T22:04:43.401Z,98.68
2022-10-05T22:07:18.639Z,97.32
2022-10-05T22:09:49.492Z,96.08
2022-10-05T22:12:18.192Z,97.04
2022-10-05T22:14:48.910Z,96.08
2022-10-05T22:17:20.800Z,96.81
2022-10-05T22:19:48.976Z,96.60
2022-10-05T22:22:19.010Z,97.91
2022-10-05T22:24:47.100Z,96.32
2022-10-05T22:27:16.698Z,97.99
2022-10-05T22:29:45.084Z,96.92
2022-10-05T22:32:13.242Z,97.55
2022-10-05T22:34:41.419Z,97.44
2022-10-05T22:37:13.094Z,97.49
2022-10-05T22:39:41.991Z,98.10
2022-10-05T22:42:11.072Z,98.40
2022-10-05T22:44:40.690Z,97.96
2022-10-05T22:47:08.905Z,96.78
2022-10-05T22:49:37.107Z,97.01
2022-10-05T22:52:05.337Z,97.64
2022-10-05T22:54:37.195Z,97.53
2022-10-05T22:57:05.542Z,97.85
2022-10-05T22:59:33.960Z,97.05
2022-10-05T23:02:03.520Z,97.28
2022-10-05T23:04:31.766Z,98.34
2022-10-05T23:06:59.979Z,98.07
2022-10-05T23:09:28.065Z,98.08
2022-10-05T23:11:56.186Z,98.68
2022-10-05T23:14:24.814Z,98.33
2022-10-05T23:16:55.415Z,98.01
2022-10-05T23:19:25.195Z,99.06
2022-10-05T23:21:53.281Z,98.87
2022-10-05T23:24:21.553Z,98.72
2022-10-05T23:26:49.722Z,99.43
2022-10-05T23:29:18.036Z,99.34
2022-10-05T23:31:46.177Z,99.56
2022-10-05T23:34:14.376Z,99.94
2022-10-05T23:36:43.908Z,99.33
2022-10-05T23:39:13.743Z,100.00
2022-10-05T23:41:44.483Z,99.74
2022-10-05T23:44:12.696Z,99.30
2022-10-05T23:46:41.037Z,100.00
2022-10-05T23:49:09.327Z,100.00
2022-10-05T23:51:37.463Z,100.00
2022-10-05T23:54:07.153Z,100.00
2022-10-05T23:56:35.453Z,100.00
2022-10-05T23:59:03.698Z,100.00
